Hauptseite
METAR-TAF:

METAR-TAF

Flughäfen :

Flughafen Recife

Recife, Pernambuco, Brasilien

Breite: 08-08S, Länge: 034-55W, Höhe: 19 m

Beobachtung

Neuester Wetterbericht von vor 17 Minuten, um 13:00 UTC
Wind 16 kt aus Süd/Südost
Temperatur 28°C
Luftfeuchtigkeit 62%
Luftdruck 1019 hPa
Sichtweite 10 km oder mehr
Durchbrochene Bewölkung in der Höhe von 2500 ft

METAR: SBRF 201300Z 16016KT 9999 BKN025 28/20 Q1019

Zeit: 10:17 (13:17 UTC)

Prognose

Neuester Wetterbericht von vor 3 Stunden und 17 Minuten, um 10:00 UTC
Gültige Prognose vom 20 um 12 UTC bis 21 um 12 UTC
Wind 9 kt aus Südost
Sichtweite: 9000 m
Durchbrochene Bewölkung in der Höhe von 2000 ft
Übergehend zu
vom 21 um 05 UTC bis 21 um 06 UTC
Wind 5 kt aus Süd/Südwest

TAF: SBRF 201000Z 2012/2112 14009KT 9000 BKN020 TX28/2015Z TN23/2108Z BECMG 2105/2106 21005KT RMK PCN

Wetterbeobachtungen und Prognosen von mehr als 4000 Flughäfen (METAR und TAF Bericht).

Die verfügbaren Stationen werden durch gelbe und rote Markierungen auf der Karte dargestellt.

Führen Sie die Maus auf sie, um den Namen der Station zu sehen.

Darauf klicken, um die Beobachtung von Wetterbeobachtungen und Prognosen zu sehen.

Um die Karte zu ändern : klicken Sie auf den grünen Tasten mit einem schwarzen Kreuz Zum Vergrößern, auf den grünen Button mit einem Gedankenstrich zu verkleinern, oder auf die grünen Pfeile für benachbarte Karten.


METAR-TAF: